createdAt,value
2018-06-16T00:01:57.230Z,19.02
2018-06-16T00:04:26.731Z,19.01
2018-06-16T00:06:55.780Z,19.01
2018-06-16T00:09:36.596Z,19.05
2018-06-16T00:14:58.955Z,19.12
2018-06-16T00:17:29.428Z,19.13
2018-06-16T00:19:58.741Z,19.13
2018-06-16T00:22:27.894Z,19.10
2018-06-16T00:25:00.934Z,19.05
2018-06-16T00:27:30.663Z,19.06
2018-06-16T00:29:59.633Z,19.03
2018-06-16T00:32:28.758Z,19.06
2018-06-16T00:34:57.719Z,19.06
2018-06-16T00:37:26.996Z,19.08
2018-06-16T00:39:56.135Z,19.09
2018-06-16T00:42:25.153Z,19.10
2018-06-16T00:44:54.307Z,19.12
2018-06-16T00:47:23.457Z,19.13
2018-06-16T00:49:52.554Z,19.10
2018-06-16T00:52:21.630Z,19.03
2018-06-16T00:54:50.766Z,18.98
2018-06-16T00:57:30.731Z,18.88
2018-06-16T00:59:59.681Z,18.83
2018-06-16T01:02:28.953Z,18.68
2018-06-16T01:04:58.266Z,18.63
2018-06-16T01:07:27.457Z,18.51
2018-06-16T01:09:56.552Z,18.53
2018-06-16T01:12:25.544Z,18.52
2018-06-16T01:14:54.756Z,18.43
2018-06-16T01:17:27.528Z,18.35
2018-06-16T01:19:58.153Z,18.29
2018-06-16T01:22:27.267Z,18.26
2018-06-16T01:24:56.348Z,18.21
2018-06-16T01:27:25.407Z,18.12
2018-06-16T01:29:54.631Z,18.09
2018-06-16T01:32:23.688Z,18.03
2018-06-16T01:34:52.816Z,17.99
2018-06-16T01:37:21.815Z,17.98
2018-06-16T01:39:50.987Z,17.91
2018-06-16T01:42:20.073Z,17.94
2018-06-16T01:44:49.100Z,17.88
2018-06-16T01:47:18.289Z,17.84
2018-06-16T01:49:47.339Z,17.83
2018-06-16T01:52:16.417Z,17.76
2018-06-16T01:54:45.399Z,17.78
2018-06-16T01:57:14.441Z,17.80
2018-06-16T01:59:43.451Z,17.85
2018-06-16T02:02:12.579Z,17.88
2018-06-16T02:04:41.773Z,17.86
2018-06-16T02:07:10.718Z,17.79
2018-06-16T02:09:39.710Z,17.76
2018-06-16T02:12:08.767Z,17.79
2018-06-16T02:14:37.834Z,17.75
2018-06-16T02:17:06.988Z,17.72
2018-06-16T02:19:36.097Z,17.72
2018-06-16T02:22:05.108Z,17.78
2018-06-16T02:24:34.165Z,17.75
2018-06-16T02:27:03.371Z,17.71
2018-06-16T02:29:32.476Z,17.62
2018-06-16T02:32:01.512Z,17.60
2018-06-16T02:34:30.573Z,17.58
2018-06-16T02:36:59.739Z,17.60
2018-06-16T02:39:28.853Z,17.54
2018-06-16T02:41:57.907Z,17.57
2018-06-16T02:44:26.916Z,17.64
2018-06-16T02:46:56.060Z,17.59
2018-06-16T02:49:25.135Z,17.59
2018-06-16T02:51:54.210Z,17.57
2018-06-16T02:54:23.516Z,17.55
2018-06-16T02:56:52.604Z,17.53
2018-06-16T02:59:21.675Z,17.53
2018-06-16T03:01:50.770Z,17.52
2018-06-16T03:04:19.862Z,17.69
2018-06-16T03:06:48.956Z,17.81
2018-06-16T03:09:18.566Z,17.89
2018-06-16T03:11:47.520Z,18.00
2018-06-16T03:14:16.689Z,18.04
2018-06-16T03:16:45.949Z,18.10
2018-06-16T03:19:14.961Z,18.20
2018-06-16T03:21:43.906Z,18.36
2018-06-16T03:24:13.062Z,18.45
2018-06-16T03:26:42.078Z,18.53
2018-06-16T03:29:11.159Z,18.65
2018-06-16T03:31:40.299Z,18.73
2018-06-16T03:34:09.368Z,18.79
2018-06-16T03:36:38.466Z,18.85
2018-06-16T03:39:08.552Z,19.01
2018-06-16T03:41:37.593Z,19.07
2018-06-16T03:44:06.613Z,19.15
2018-06-16T03:46:35.790Z,19.27
2018-06-16T03:49:04.740Z,19.37
2018-06-16T03:51:33.853Z,19.52
2018-06-16T03:54:02.957Z,19.65
2018-06-16T03:56:32.115Z,19.65
2018-06-16T03:59:01.211Z,19.64
2018-06-16T04:01:30.344Z,19.60
2018-06-16T04:03:59.263Z,19.55
2018-06-16T04:06:28.498Z,19.60
2018-06-16T04:08:57.457Z,19.67
2018-06-16T04:11:26.660Z,19.58
2018-06-16T04:13:55.616Z,19.71
2018-06-16T04:16:24.514Z,19.70
2018-06-16T04:18:53.618Z,19.77
2018-06-16T04:21:22.767Z,19.92
2018-06-16T04:23:51.898Z,19.88
2018-06-16T04:26:20.851Z,19.96
2018-06-16T04:28:49.844Z,19.80
2018-06-16T04:31:18.976Z,20.06
2018-06-16T04:33:48.028Z,20.19
2018-06-16T04:36:17.014Z,20.22
2018-06-16T04:38:46.154Z,20.02
2018-06-16T04:41:15.343Z,20.10
2018-06-16T04:43:44.406Z,20.27
2018-06-16T04:46:13.658Z,20.59
2018-06-16T04:48:42.811Z,20.89
2018-06-16T04:51:12.006Z,21.03
2018-06-16T04:53:41.015Z,21.26
2018-06-16T04:56:10.174Z,21.50
2018-06-16T04:58:39.120Z,21.68
2018-06-16T05:01:08.352Z,21.95
2018-06-16T05:03:37.485Z,21.85
2018-06-16T05:06:06.658Z,21.78
2018-06-16T05:08:35.822Z,21.60
2018-06-16T05:11:04.942Z,21.51
2018-06-16T05:13:34.509Z,21.52
2018-06-16T05:16:03.731Z,22.09
2018-06-16T05:18:32.766Z,22.58
2018-06-16T05:21:01.984Z,23.27
2018-06-16T05:23:31.090Z,24.06
2018-06-16T05:26:00.144Z,24.21
2018-06-16T05:28:29.259Z,24.58
2018-06-16T05:30:58.636Z,25.31
2018-06-16T05:33:27.678Z,25.60
2018-06-16T05:35:56.923Z,25.50
2018-06-16T05:38:25.972Z,25.06
2018-06-16T05:40:55.112Z,25.00
2018-06-16T05:43:24.283Z,24.79
2018-06-16T05:45:53.574Z,24.70
2018-06-16T05:48:22.712Z,24.76
2018-06-16T05:50:51.814Z,25.14
2018-06-16T05:53:21.007Z,25.88
2018-06-16T05:57:19.355Z,25.81
2018-06-16T05:59:48.617Z,26.58
2018-06-16T06:02:17.705Z,26.34
2018-06-16T06:04:46.646Z,26.52
2018-06-16T06:07:15.975Z,26.47
2018-06-16T06:09:46.270Z,26.91
2018-06-16T06:12:15.321Z,27.39
2018-06-16T06:14:44.364Z,28.01
2018-06-16T06:17:13.472Z,27.99
2018-06-16T06:19:42.612Z,28.17
2018-06-16T06:22:11.668Z,27.35
2018-06-16T06:24:40.824Z,27.23
2018-06-16T06:27:10.032Z,27.39
2018-06-16T06:29:39.040Z,26.21
2018-06-16T06:32:08.175Z,25.44
2018-06-16T06:34:37.157Z,25.38
2018-06-16T06:37:06.265Z,25.14
2018-06-16T06:39:35.286Z,25.09
2018-06-16T06:42:04.385Z,25.17
2018-06-16T06:44:33.490Z,24.49
2018-06-16T06:47:02.640Z,24.32
2018-06-16T06:49:32.047Z,24.58
2018-06-16T06:52:01.257Z,24.79
2018-06-16T06:54:30.629Z,24.31
2018-06-16T06:56:59.771Z,24.41
2018-06-16T06:59:28.806Z,24.43
2018-06-16T07:01:57.983Z,24.70
2018-06-16T07:04:27.132Z,24.53
2018-06-16T07:06:57.379Z,24.58
2018-06-16T07:09:26.584Z,24.66
2018-06-16T07:11:59.825Z,24.79
2018-06-16T07:14:28.904Z,24.92
2018-06-16T07:16:58.308Z,24.96
2018-06-16T07:19:27.341Z,25.18
2018-06-16T07:21:56.419Z,25.57
2018-06-16T07:24:25.403Z,25.58
2018-06-16T07:26:54.585Z,25.91
2018-06-16T07:29:23.798Z,26.02
2018-06-16T07:31:54.568Z,26.11
2018-06-16T07:34:23.623Z,26.14
2018-06-16T07:36:52.715Z,26.09
2018-06-16T07:39:21.840Z,25.73
2018-06-16T07:41:51.051Z,25.31
2018-06-16T07:44:20.040Z,25.46
2018-06-16T07:46:49.166Z,25.74
2018-06-16T07:49:18.319Z,25.84
2018-06-16T07:51:47.344Z,25.62
2018-06-16T07:54:16.405Z,25.63
2018-06-16T07:56:45.599Z,25.45
2018-06-16T07:59:14.565Z,25.71
2018-06-16T08:01:43.705Z,25.98
2018-06-16T08:04:12.778Z,25.92
2018-06-16T08:06:41.811Z,25.88
2018-06-16T08:09:11.731Z,26.01
2018-06-16T08:11:40.968Z,26.10
2018-06-16T08:14:09.972Z,26.45
2018-06-16T08:16:39.045Z,26.69
2018-06-16T08:19:08.261Z,26.80
2018-06-16T08:21:37.263Z,26.82
2018-06-16T08:24:06.373Z,26.72
2018-06-16T08:26:35.492Z,27.15
2018-06-16T08:29:04.493Z,27.35
2018-06-16T08:31:33.624Z,27.60
2018-06-16T08:34:02.819Z,27.54
2018-06-16T08:36:31.698Z,27.03
2018-06-16T08:39:01.713Z,26.61
2018-06-16T08:41:30.980Z,27.16
2018-06-16T08:44:00.284Z,27.61
2018-06-16T08:46:29.448Z,27.53
2018-06-16T08:48:59.129Z,27.48
2018-06-16T08:51:28.255Z,26.90
2018-06-16T08:53:57.231Z,26.83
2018-06-16T08:56:26.441Z,26.68
2018-06-16T08:58:55.597Z,26.68
2018-06-16T09:01:24.715Z,26.83
2018-06-16T09:03:53.904Z,26.98
2018-06-16T09:06:22.962Z,26.81
2018-06-16T09:08:52.078Z,27.19
2018-06-16T09:11:21.198Z,27.32
2018-06-16T09:13:50.265Z,27.80
2018-06-16T09:16:19.385Z,27.75
2018-06-16T09:18:48.514Z,27.52
2018-06-16T09:21:17.560Z,28.15
2018-06-16T09:23:46.758Z,28.63
2018-06-16T09:26:15.953Z,28.01
2018-06-16T09:28:45.052Z,27.99
2018-06-16T09:31:14.147Z,27.63
2018-06-16T09:33:43.852Z,27.94
2018-06-16T09:36:13.045Z,28.74
2018-06-16T09:38:42.918Z,28.82
2018-06-16T09:41:12.058Z,28.98
2018-06-16T09:43:41.253Z,29.52
2018-06-16T09:46:10.267Z,29.27
2018-06-16T09:48:39.423Z,28.22
2018-06-16T09:51:08.464Z,28.66
2018-06-16T09:53:37.542Z,29.15
2018-06-16T09:56:06.660Z,29.28
2018-06-16T09:58:36.587Z,29.51
2018-06-16T10:01:05.708Z,29.38
2018-06-16T10:03:34.834Z,29.43
2018-06-16T10:06:04.022Z,29.31
2018-06-16T10:08:33.172Z,29.33
2018-06-16T10:11:02.238Z,29.35
2018-06-16T10:13:31.365Z,29.22
2018-06-16T10:16:00.411Z,29.29
2018-06-16T10:18:29.559Z,29.17
2018-06-16T10:20:58.649Z,29.53
2018-06-16T10:23:27.651Z,29.78
2018-06-16T10:25:57.591Z,29.85
2018-06-16T10:28:26.731Z,29.76
2018-06-16T10:30:55.847Z,29.87
2018-06-16T10:33:24.937Z,29.75
2018-06-16T10:35:54.058Z,29.87
2018-06-16T10:38:23.112Z,29.71
2018-06-16T10:40:52.161Z,29.69
2018-06-16T10:43:21.308Z,29.71
2018-06-16T10:45:50.431Z,29.56
2018-06-16T10:48:19.407Z,29.49
2018-06-16T10:50:48.576Z,29.26
2018-06-16T10:53:17.784Z,29.32
2018-06-16T10:55:47.001Z,29.34
2018-06-16T10:58:16.176Z,29.27
2018-06-16T11:00:46.163Z,29.47
2018-06-16T11:03:15.318Z,29.28
2018-06-16T11:05:44.418Z,29.33
2018-06-16T11:08:13.562Z,29.39
2018-06-16T11:10:42.557Z,29.44
2018-06-16T11:13:11.862Z,29.34
2018-06-16T11:15:40.994Z,28.35
2018-06-16T11:18:10.168Z,24.80
2018-06-16T11:20:39.278Z,23.74
2018-06-16T11:23:08.464Z,22.95
2018-06-16T11:25:37.445Z,22.36
2018-06-16T11:28:06.880Z,22.04
2018-06-16T11:30:40.616Z,21.81
2018-06-16T11:33:10.975Z,21.63
2018-06-16T11:35:46.750Z,21.61
2018-06-16T11:38:15.891Z,21.63
2018-06-16T11:40:46.060Z,21.66
2018-06-16T11:43:15.314Z,21.73
2018-06-16T11:45:44.481Z,21.86
2018-06-16T11:48:17.822Z,21.83
2018-06-16T11:50:46.819Z,22.20
2018-06-16T11:53:16.113Z,22.00
2018-06-16T11:55:45.288Z,21.95
2018-06-16T11:58:15.647Z,22.11
2018-06-16T12:04:03.126Z,22.52
2018-06-16T12:06:49.259Z,22.93
2018-06-16T12:09:23.690Z,23.34
2018-06-16T12:11:53.048Z,23.84
2018-06-16T12:14:22.373Z,24.29
2018-06-16T12:16:51.952Z,24.57
2018-06-16T12:19:21.096Z,24.86
2018-06-16T12:21:50.129Z,25.30
2018-06-16T12:24:19.255Z,25.71
2018-06-16T12:26:48.407Z,26.12
2018-06-16T12:29:17.968Z,26.30
2018-06-16T12:31:47.142Z,26.57
2018-06-16T12:34:16.242Z,26.70
2018-06-16T12:36:48.141Z,26.89
2018-06-16T12:39:17.258Z,26.39
2018-06-16T12:41:46.366Z,26.50
2018-06-16T12:44:15.808Z,26.18
2018-06-16T12:46:45.221Z,25.44
2018-06-16T12:49:14.293Z,24.78
2018-06-16T12:54:36.054Z,23.73
2018-06-16T12:57:05.255Z,23.19
2018-06-16T12:59:34.436Z,22.71
2018-06-16T13:02:03.821Z,22.60
2018-06-16T13:04:36.220Z,22.47
2018-06-16T13:07:15.757Z,22.35
2018-06-16T13:09:46.613Z,22.29
2018-06-16T13:12:45.417Z,22.22
2018-06-16T13:16:04.648Z,22.45
2018-06-16T13:20:03.403Z,22.71
2018-06-16T13:22:32.640Z,23.15
2018-06-16T13:25:01.918Z,23.22
2018-06-16T13:27:31.189Z,23.43
2018-06-16T13:30:00.494Z,23.45
2018-06-16T13:32:29.787Z,23.51
2018-06-16T13:34:59.137Z,23.80
2018-06-16T13:37:28.333Z,23.99
2018-06-16T13:39:57.487Z,24.21
2018-06-16T13:42:26.826Z,24.13
2018-06-16T13:44:56.126Z,24.30
2018-06-16T13:47:25.292Z,24.56
2018-06-16T13:49:54.432Z,24.66
2018-06-16T13:52:23.535Z,24.74
2018-06-16T13:54:52.830Z,24.85
2018-06-16T13:57:21.984Z,24.72
2018-06-16T13:59:51.236Z,25.04
2018-06-16T14:02:24.326Z,25.12
2018-06-16T14:04:56.756Z,24.89
2018-06-16T14:07:26.115Z,24.99
2018-06-16T14:09:55.872Z,24.80
2018-06-16T14:12:27.392Z,24.73
2018-06-16T14:14:56.604Z,24.96
2018-06-16T14:17:25.803Z,25.22
2018-06-16T14:19:54.889Z,25.48
2018-06-16T14:22:23.914Z,25.80
2018-06-16T14:24:53.202Z,25.88
2018-06-16T14:27:22.587Z,25.97
2018-06-16T14:29:51.490Z,26.18
2018-06-16T14:32:20.788Z,26.15
2018-06-16T14:34:50.029Z,26.40
2018-06-16T14:37:18.961Z,26.61
2018-06-16T14:39:47.940Z,26.78
2018-06-16T14:42:17.079Z,26.72
2018-06-16T14:44:46.136Z,26.44
2018-06-16T14:47:15.248Z,26.15
2018-06-16T14:49:44.385Z,26.66
2018-06-16T14:52:13.436Z,26.97
2018-06-16T14:54:42.605Z,27.06
2018-06-16T14:57:11.549Z,27.03
2018-06-16T14:59:40.654Z,26.67
2018-06-16T15:02:09.722Z,26.77
2018-06-16T15:04:38.926Z,26.63
2018-06-16T15:07:07.961Z,26.62
2018-06-16T15:09:37.112Z,26.57
2018-06-16T15:12:06.308Z,26.26
2018-06-16T15:14:35.490Z,26.40
2018-06-16T15:17:04.504Z,26.47
2018-06-16T15:19:34.332Z,26.19
2018-06-16T15:22:03.435Z,26.09
2018-06-16T15:24:32.530Z,25.98
2018-06-16T15:27:02.599Z,25.77
2018-06-16T15:29:31.638Z,25.68
2018-06-16T15:32:00.777Z,25.69
2018-06-16T15:34:30.135Z,25.75
2018-06-16T15:36:59.089Z,25.97
2018-06-16T15:39:28.220Z,25.85
2018-06-16T15:41:57.387Z,25.83
2018-06-16T15:44:26.431Z,25.92
2018-06-16T15:46:55.826Z,25.61
2018-06-16T15:49:24.786Z,25.75
2018-06-16T15:51:53.868Z,25.75
2018-06-16T15:54:23.031Z,25.82
2018-06-16T15:56:52.041Z,25.80
2018-06-16T15:59:21.203Z,25.85
2018-06-16T16:01:50.239Z,25.61
2018-06-16T16:04:19.858Z,25.54
2018-06-16T16:06:48.775Z,25.48
2018-06-16T16:09:18.024Z,25.49
2018-06-16T16:11:47.295Z,25.25
2018-06-16T16:14:16.342Z,25.56
2018-06-16T16:16:45.417Z,25.75
2018-06-16T16:19:20.361Z,25.73
2018-06-16T16:21:49.256Z,25.58
2018-06-16T16:24:19.086Z,25.71
2018-06-16T16:26:48.503Z,25.55
2018-06-16T16:29:17.697Z,25.51
2018-06-16T16:31:46.643Z,25.51
2018-06-16T16:34:15.668Z,25.49
2018-06-16T16:36:44.591Z,25.43
2018-06-16T16:39:13.625Z,25.60
2018-06-16T16:41:43.013Z,25.60
2018-06-16T16:44:11.974Z,25.45
2018-06-16T16:46:40.992Z,25.56
2018-06-16T16:49:10.305Z,25.58
2018-06-16T16:51:39.207Z,25.54
2018-06-16T16:54:08.131Z,25.52
2018-06-16T16:56:37.545Z,25.48
2018-06-16T16:59:06.619Z,25.51
2018-06-16T17:01:35.519Z,25.47
2018-06-16T17:04:05.646Z,25.52
2018-06-16T17:06:34.577Z,25.43
2018-06-16T17:09:05.464Z,25.36
2018-06-16T17:11:34.412Z,25.30
2018-06-16T17:14:03.414Z,25.25
2018-06-16T17:16:32.423Z,25.21
2018-06-16T17:19:01.324Z,25.13
2018-06-16T17:21:30.345Z,25.09
2018-06-16T17:23:59.437Z,25.06
2018-06-16T17:26:28.325Z,25.01
2018-06-16T17:28:57.284Z,24.96
2018-06-16T17:31:26.639Z,24.91
2018-06-16T17:33:55.521Z,24.84
2018-06-16T17:36:24.503Z,24.78
2018-06-16T17:38:53.766Z,24.72
2018-06-16T17:41:22.709Z,24.60
2018-06-16T17:43:52.374Z,24.47
2018-06-16T17:46:21.671Z,24.26
2018-06-16T17:48:50.718Z,24.17
2018-06-16T17:51:19.707Z,24.02
2018-06-16T17:53:49.362Z,23.96
2018-06-16T17:56:18.365Z,23.85
2018-06-16T17:58:47.306Z,23.78
2018-06-16T18:02:19.090Z,23.70
2018-06-16T18:04:48.010Z,23.57
2018-06-16T18:07:17.016Z,23.50
2018-06-16T18:09:46.076Z,23.44
2018-06-16T18:12:15.044Z,23.34
2018-06-16T18:14:44.952Z,23.30
2018-06-16T18:17:14.471Z,23.17
2018-06-16T18:19:43.442Z,23.14
2018-06-16T18:22:12.335Z,23.04
2018-06-16T18:24:41.314Z,23.06
2018-06-16T18:27:10.173Z,23.01
2018-06-16T18:29:39.149Z,23.02
2018-06-16T18:32:08.635Z,22.93
2018-06-16T18:34:37.552Z,22.91
2018-06-16T18:37:06.437Z,22.92
2018-06-16T18:39:35.906Z,22.86
2018-06-16T18:42:04.896Z,22.77
2018-06-16T18:44:33.888Z,22.66
2018-06-16T18:47:02.891Z,22.59
2018-06-16T18:49:31.792Z,22.52
2018-06-16T18:52:00.748Z,22.45
2018-06-16T18:54:29.713Z,22.30
2018-06-16T18:56:59.729Z,22.30
2018-06-16T18:59:28.692Z,22.29
2018-06-16T19:01:58.120Z,22.27
2018-06-16T19:04:27.654Z,22.23
2018-06-16T19:06:56.595Z,22.19
2018-06-16T19:09:25.672Z,22.11
2018-06-16T19:11:54.665Z,22.08
2018-06-16T19:14:23.618Z,21.99
2018-06-16T19:16:53.093Z,22.02
2018-06-16T19:19:22.015Z,21.95
2018-06-16T19:21:51.017Z,21.89
2018-06-16T19:24:20.601Z,21.88
2018-06-16T19:26:49.577Z,21.92
2018-06-16T19:29:18.583Z,21.96
2018-06-16T19:31:47.589Z,22.05
2018-06-16T19:34:16.472Z,22.05
2018-06-16T19:36:45.401Z,22.02
2018-06-16T19:39:14.408Z,22.06
2018-06-16T19:41:43.293Z,22.00
2018-06-16T19:45:15.585Z,22.05
2018-06-16T19:47:44.568Z,21.93
2018-06-16T19:50:13.605Z,22.00
2018-06-16T19:52:42.724Z,22.06
2018-06-16T19:55:11.739Z,22.09
2018-06-16T19:57:40.779Z,22.11
2018-06-16T20:00:09.820Z,22.11
2018-06-16T20:02:38.792Z,22.08
2018-06-16T20:05:07.841Z,22.04
2018-06-16T20:07:37.011Z,22.00
2018-06-16T20:10:06.077Z,22.00
2018-06-16T20:12:35.073Z,21.98
2018-06-16T20:15:04.499Z,21.95
2018-06-16T20:17:33.464Z,22.03
2018-06-16T20:20:02.403Z,22.06
2018-06-16T20:22:31.959Z,22.09
2018-06-16T20:25:00.809Z,22.00
2018-06-16T20:27:29.795Z,21.98
2018-06-16T20:29:59.046Z,21.97
2018-06-16T20:32:28.121Z,21.84
2018-06-16T20:34:57.101Z,21.84
2018-06-16T20:37:26.505Z,21.83
2018-06-16T20:39:55.593Z,21.80
2018-06-16T20:42:24.618Z,21.78
2018-06-16T20:44:54.196Z,21.72
2018-06-16T20:47:23.569Z,21.68
2018-06-16T20:49:54.025Z,21.62
2018-06-16T20:52:22.987Z,21.58
2018-06-16T20:54:52.152Z,21.54
2018-06-16T20:57:21.270Z,21.49
2018-06-16T20:59:50.290Z,21.47
2018-06-16T21:02:19.320Z,21.36
2018-06-16T21:04:48.825Z,21.27
2018-06-16T21:07:17.771Z,21.18
2018-06-16T21:09:47.055Z,21.10
2018-06-16T21:12:16.190Z,21.06
2018-06-16T21:14:45.329Z,20.98
2018-06-16T21:17:14.282Z,20.98
2018-06-16T21:19:43.289Z,21.04
2018-06-16T21:22:12.347Z,20.99
2018-06-16T21:24:41.753Z,20.90
2018-06-16T21:30:15.299Z,20.79
2018-06-16T21:32:45.025Z,20.74
2018-06-16T21:35:14.098Z,20.73
2018-06-16T21:37:43.384Z,20.76
2018-06-16T21:40:12.635Z,20.80
2018-06-16T21:42:44.353Z,20.83
2018-06-16T21:45:14.764Z,20.87
2018-06-16T21:47:46.601Z,20.86
2018-06-16T21:50:22.344Z,20.86
2018-06-16T21:52:53.229Z,20.84
2018-06-16T21:55:24.361Z,20.83
2018-06-16T21:57:55.187Z,20.80
2018-06-16T22:00:35.772Z,20.79
2018-06-16T22:03:18.325Z,20.75
2018-06-16T22:05:50.190Z,20.65
2018-06-16T22:08:25.729Z,20.57
2018-06-16T22:10:58.478Z,20.53
2018-06-16T22:13:29.649Z,20.47
2018-06-16T22:15:58.993Z,20.45
2018-06-16T22:18:32.523Z,20.40
2018-06-16T22:21:01.937Z,20.36
2018-06-16T22:23:31.353Z,20.30
2018-06-16T22:26:42.774Z,20.25
2018-06-16T22:29:12.214Z,20.22
2018-06-16T22:31:41.809Z,20.19
2018-06-16T22:34:11.773Z,20.16
2018-06-16T22:36:41.123Z,20.13
2018-06-16T22:39:22.011Z,20.09
2018-06-16T22:48:31.403Z,19.96
2018-06-16T22:51:08.110Z,19.92
2018-06-16T22:54:18.094Z,19.88
2018-06-16T22:56:47.259Z,19.83
2018-06-16T22:59:16.413Z,19.80
2018-06-16T23:01:46.481Z,19.76
2018-06-16T23:04:17.170Z,19.71
2018-06-16T23:06:46.404Z,19.69
2018-06-16T23:09:15.606Z,19.74
2018-06-16T23:11:44.862Z,19.72
2018-06-16T23:14:14.404Z,19.74
2018-06-16T23:16:43.923Z,19.76
2018-06-16T23:19:13.192Z,19.76
2018-06-16T23:21:42.421Z,19.76
2018-06-16T23:24:15.382Z,19.80
2018-06-16T23:26:44.705Z,19.85
2018-06-16T23:29:14.039Z,19.86
2018-06-16T23:31:43.602Z,19.90
2018-06-16T23:34:13.926Z,19.89
2018-06-16T23:36:43.312Z,19.96
2018-06-16T23:39:13.772Z,19.88
2018-06-16T23:41:44.091Z,19.89
2018-06-16T23:49:17.260Z,19.93
2018-06-16T23:51:47.833Z,19.78
2018-06-16T23:54:27.196Z,19.76
2018-06-16T23:57:03.284Z,19.71
2018-06-16T23:59:32.512Z,19.72
